createdAt,value
2023-09-26T00:00:54.227Z,99.99
2023-09-26T00:01:54.274Z,99.99
2023-09-26T00:02:54.304Z,99.99
2023-09-26T00:03:54.585Z,99.99
2023-09-26T00:04:54.331Z,99.99
2023-09-26T00:05:56.056Z,99.99
2023-09-26T00:06:54.176Z,99.99
2023-09-26T00:07:54.263Z,99.99
2023-09-26T00:08:54.155Z,99.99
2023-09-26T00:09:54.177Z,99.99
2023-09-26T00:10:54.135Z,99.99
2023-09-26T00:11:54.127Z,99.99
2023-09-26T00:12:54.181Z,99.99
2023-09-26T00:13:54.112Z,99.99
2023-09-26T00:14:54.102Z,99.99
2023-09-26T00:15:54.161Z,99.99
2023-09-26T00:16:54.140Z,99.99
2023-09-26T00:17:54.144Z,99.99
2023-09-26T00:18:54.092Z,99.99
2023-09-26T00:19:54.074Z,99.99
2023-09-26T00:20:54.064Z,99.99
2023-09-26T00:21:54.087Z,99.99
2023-09-26T00:22:54.124Z,99.99
2023-09-26T00:23:54.045Z,99.99
2023-09-26T00:24:54.047Z,99.99
2023-09-26T00:25:54.018Z,99.99
2023-09-26T00:26:54.043Z,99.99
2023-09-26T00:27:54.143Z,99.99
2023-09-26T00:28:53.988Z,99.99
2023-09-26T00:29:53.984Z,99.99
2023-09-26T00:30:53.988Z,99.99
2023-09-26T00:31:54.012Z,99.99
2023-09-26T00:32:54.024Z,99.99
2023-09-26T00:33:53.982Z,99.99
2023-09-26T00:34:53.950Z,99.99
2023-09-26T00:35:53.962Z,99.99
2023-09-26T00:36:54.081Z,99.99
2023-09-26T00:37:54.077Z,99.99
2023-09-26T00:38:53.914Z,99.99
2023-09-26T00:39:53.952Z,99.99
2023-09-26T00:40:53.936Z,99.99
2023-09-26T00:41:53.935Z,99.99
2023-09-26T00:42:53.914Z,99.99
2023-09-26T00:43:53.900Z,99.99
2023-09-26T00:44:53.882Z,99.99
2023-09-26T00:45:53.968Z,99.99
2023-09-26T00:46:54.013Z,99.99
2023-09-26T00:47:53.876Z,99.99
2023-09-26T00:48:53.860Z,99.99
2023-09-26T00:49:53.832Z,99.99
2023-09-26T00:50:53.880Z,99.99
2023-09-26T00:51:53.840Z,99.99
2023-09-26T00:52:53.812Z,99.99
2023-09-26T00:53:53.804Z,99.99
2023-09-26T00:54:53.807Z,99.99
2023-09-26T00:55:53.814Z,99.99
2023-09-26T00:56:53.794Z,99.99
2023-09-26T00:57:53.859Z,99.99
2023-09-26T00:58:53.773Z,99.99
2023-09-26T00:59:53.784Z,99.99
2023-09-26T01:00:53.837Z,99.99
2023-09-26T01:01:53.794Z,99.99
2023-09-26T01:02:53.800Z,99.99
2023-09-26T01:03:54.114Z,99.99
2023-09-26T01:04:53.783Z,99.99
2023-09-26T01:05:53.740Z,99.99
2023-09-26T01:06:53.754Z,99.99
2023-09-26T01:07:53.700Z,99.99
2023-09-26T01:08:53.702Z,99.99
2023-09-26T01:09:53.722Z,99.99
2023-09-26T01:10:53.706Z,99.99
2023-09-26T01:11:53.678Z,99.99
2023-09-26T01:12:53.683Z,99.99
2023-09-26T01:13:53.654Z,99.99
2023-09-26T01:14:53.681Z,99.99
2023-09-26T01:15:53.683Z,99.99
2023-09-26T01:16:53.701Z,99.99
2023-09-26T01:17:53.669Z,99.99
2023-09-26T01:18:53.734Z,99.99
2023-09-26T01:19:53.638Z,99.99
2023-09-26T01:20:53.607Z,99.99
2023-09-26T01:21:53.623Z,99.99
2023-09-26T01:22:53.604Z,99.99
2023-09-26T01:23:53.591Z,99.99
2023-09-26T01:24:53.635Z,99.99
2023-09-26T01:25:53.578Z,99.99
2023-09-26T01:26:53.550Z,99.99
2023-09-26T01:27:53.568Z,99.99
2023-09-26T01:28:53.558Z,99.99
2023-09-26T01:29:53.554Z,99.99
2023-09-26T01:30:53.537Z,99.99
2023-09-26T01:31:53.557Z,99.99
2023-09-26T01:32:53.537Z,99.99
2023-09-26T01:33:53.714Z,99.99
2023-09-26T01:34:53.512Z,99.99
2023-09-26T01:35:54.500Z,99.99
2023-09-26T01:36:53.515Z,99.99
2023-09-26T01:37:53.468Z,99.99
2023-09-26T01:38:53.489Z,99.99
2023-09-26T01:39:53.508Z,99.99
2023-09-26T01:40:53.462Z,99.99
2023-09-26T01:41:53.438Z,99.99
2023-09-26T01:42:53.459Z,99.99
2023-09-26T01:43:53.454Z,99.99
2023-09-26T01:44:53.416Z,99.99
2023-09-26T01:45:53.516Z,99.99
2023-09-26T01:46:53.467Z,99.99
2023-09-26T01:47:53.435Z,99.99
2023-09-26T01:48:53.455Z,99.99
2023-09-26T01:49:53.379Z,99.99
2023-09-26T01:50:53.373Z,99.99
2023-09-26T01:51:53.413Z,99.99
2023-09-26T01:52:53.356Z,99.99
2023-09-26T01:53:53.368Z,99.99
2023-09-26T01:54:53.346Z,99.99
2023-09-26T01:55:53.330Z,99.99
2023-09-26T01:56:53.328Z,99.99
2023-09-26T01:57:53.350Z,99.99
2023-09-26T01:58:53.335Z,99.99
2023-09-26T01:59:53.302Z,99.99
2023-09-26T02:00:53.317Z,99.99
2023-09-26T02:01:53.345Z,99.99
2023-09-26T02:02:53.345Z,99.99
2023-09-26T02:03:53.440Z,99.99
2023-09-26T02:04:53.257Z,99.99
2023-09-26T02:05:53.293Z,99.99
2023-09-26T02:06:53.271Z,99.99
2023-09-26T02:07:53.256Z,99.99
2023-09-26T02:08:53.231Z,99.99
2023-09-26T02:09:53.228Z,99.99
2023-09-26T02:10:53.224Z,99.99
2023-09-26T02:11:53.231Z,99.99
2023-09-26T02:12:53.371Z,99.99
2023-09-26T02:13:54.360Z,99.99
2023-09-26T02:14:53.173Z,99.99
2023-09-26T02:15:53.217Z,99.99
2023-09-26T02:16:53.254Z,99.99
2023-09-26T02:17:53.175Z,99.99
2023-09-26T02:18:53.166Z,99.99
2023-09-26T02:19:53.182Z,99.99
2023-09-26T02:20:53.129Z,99.99
2023-09-26T02:21:53.174Z,99.99
2023-09-26T02:22:53.123Z,99.99
2023-09-26T02:23:53.232Z,99.99
2023-09-26T02:24:53.134Z,99.99
2023-09-26T02:25:53.155Z,99.99
2023-09-26T02:26:53.114Z,99.99
2023-09-26T02:27:53.118Z,99.99
2023-09-26T02:28:53.068Z,99.99
2023-09-26T02:29:53.061Z,99.99
2023-09-26T02:30:53.083Z,99.99
2023-09-26T02:31:53.101Z,99.99
2023-09-26T02:32:53.084Z,99.99
2023-09-26T02:33:53.188Z,99.99
2023-09-26T02:34:53.018Z,99.99
2023-09-26T02:35:53.037Z,99.99
2023-09-26T02:36:53.077Z,99.99
2023-09-26T02:37:53.012Z,99.99
2023-09-26T02:38:52.983Z,99.99
2023-09-26T02:39:53.012Z,99.99
2023-09-26T02:40:52.996Z,99.99
2023-09-26T02:41:52.957Z,99.99
2023-09-26T02:42:53.006Z,99.99
2023-09-26T02:43:52.966Z,99.99
2023-09-26T02:44:52.973Z,99.99
2023-09-26T02:45:52.969Z,99.99
2023-09-26T02:46:52.949Z,99.99
2023-09-26T02:47:52.936Z,99.99
2023-09-26T02:48:52.917Z,99.99
2023-09-26T02:49:52.922Z,99.99
2023-09-26T02:50:52.889Z,99.99
2023-09-26T02:51:52.907Z,99.99
2023-09-26T02:52:52.875Z,99.99
2023-09-26T02:53:52.884Z,99.99
2023-09-26T02:54:52.914Z,99.99
2023-09-26T02:55:52.847Z,99.99
2023-09-26T02:56:52.842Z,99.99
2023-09-26T02:57:52.858Z,99.99
2023-09-26T02:58:52.827Z,99.99
2023-09-26T02:59:52.840Z,99.99
2023-09-26T03:00:52.836Z,99.99
2023-09-26T03:01:52.842Z,99.99
2023-09-26T03:02:52.803Z,99.99
2023-09-26T03:03:53.062Z,99.99
2023-09-26T03:04:52.800Z,99.99
2023-09-26T03:05:52.768Z,99.99
2023-09-26T03:06:52.785Z,99.99
2023-09-26T03:07:52.770Z,99.99
2023-09-26T03:08:52.768Z,99.99
2023-09-26T03:09:52.764Z,99.99
2023-09-26T03:10:53.731Z,99.99
2023-09-26T03:11:52.724Z,99.99
2023-09-26T03:12:52.737Z,99.99
2023-09-26T03:13:52.894Z,99.99
2023-09-26T03:14:52.726Z,99.99
2023-09-26T03:15:54.652Z,99.99
2023-09-26T03:16:53.859Z,99.99
2023-09-26T03:17:52.755Z,99.99
2023-09-26T03:18:52.704Z,99.99
2023-09-26T03:19:52.670Z,99.99
2023-09-26T03:20:52.656Z,99.99
2023-09-26T03:21:52.739Z,99.99
2023-09-26T03:22:52.664Z,99.99
2023-09-26T03:23:52.691Z,99.99
2023-09-26T03:24:52.650Z,99.99
2023-09-26T03:25:52.621Z,99.99
2023-09-26T03:26:52.619Z,99.99
2023-09-26T03:27:52.682Z,99.99
2023-09-26T03:28:52.606Z,99.99
2023-09-26T03:29:52.612Z,99.99
2023-09-26T03:30:52.766Z,99.99
2023-09-26T03:31:52.772Z,99.99
2023-09-26T03:32:52.613Z,99.99
2023-09-26T03:33:53.791Z,99.99
2023-09-26T03:34:52.557Z,99.99
2023-09-26T03:35:52.573Z,99.99
2023-09-26T03:36:52.595Z,99.99
2023-09-26T03:37:52.562Z,99.99
2023-09-26T03:38:52.543Z,99.99
2023-09-26T03:39:52.559Z,99.99
2023-09-26T03:40:52.509Z,99.99
2023-09-26T03:41:52.524Z,99.99
2023-09-26T03:42:52.532Z,99.99
2023-09-26T03:43:52.594Z,99.99
2023-09-26T03:44:52.492Z,99.99
2023-09-26T03:45:52.538Z,99.99
2023-09-26T03:46:52.583Z,99.99
2023-09-26T03:47:52.526Z,99.99
2023-09-26T03:48:52.470Z,99.99
2023-09-26T03:49:52.431Z,99.99
2023-09-26T03:50:53.436Z,99.99
2023-09-26T03:51:52.457Z,99.99
2023-09-26T03:52:52.416Z,99.99
2023-09-26T03:53:52.617Z,99.99
2023-09-26T03:54:52.416Z,99.99
2023-09-26T03:55:52.423Z,99.99
2023-09-26T03:56:52.406Z,99.99
2023-09-26T03:57:52.396Z,99.99
2023-09-26T03:58:52.365Z,99.99
2023-09-26T03:59:52.355Z,99.99
2023-09-26T04:00:52.415Z,99.99
2023-09-26T04:01:52.468Z,99.99
2023-09-26T04:02:52.357Z,99.99
2023-09-26T04:03:52.540Z,99.99
2023-09-26T04:04:52.375Z,99.99
2023-09-26T04:05:52.340Z,99.99
2023-09-26T04:06:52.335Z,99.99
2023-09-26T04:07:52.301Z,99.99
2023-09-26T04:08:52.298Z,99.99
2023-09-26T04:09:52.340Z,99.99
2023-09-26T04:10:52.299Z,99.99
2023-09-26T04:11:52.261Z,99.99
2023-09-26T04:12:52.294Z,99.99
2023-09-26T04:13:52.434Z,99.99
2023-09-26T04:14:52.259Z,99.99
2023-09-26T04:15:52.273Z,99.99
2023-09-26T04:16:52.220Z,99.99
2023-09-26T04:17:53.277Z,99.99
2023-09-26T04:18:52.305Z,99.99
2023-09-26T04:19:52.242Z,99.99
2023-09-26T04:20:52.227Z,99.99
2023-09-26T04:21:52.232Z,99.99
2023-09-26T04:22:52.185Z,99.99
2023-09-26T04:23:52.249Z,99.99
2023-09-26T04:24:52.214Z,99.99
2023-09-26T04:25:52.157Z,99.99
2023-09-26T04:26:52.158Z,99.99
2023-09-26T04:27:52.153Z,99.99
2023-09-26T04:28:52.135Z,99.99
2023-09-26T04:29:52.156Z,99.99
2023-09-26T04:30:52.191Z,99.99
2023-09-26T04:31:52.185Z,99.99
2023-09-26T04:32:52.123Z,99.99
2023-09-26T04:33:52.413Z,99.99
2023-09-26T04:34:52.127Z,99.99
2023-09-26T04:35:52.085Z,99.99
2023-09-26T04:36:52.175Z,99.99
2023-09-26T04:37:52.116Z,99.99
2023-09-26T04:38:52.092Z,99.99
2023-09-26T04:39:52.142Z,99.99
2023-09-26T04:40:52.062Z,99.99
2023-09-26T04:41:52.037Z,99.99
2023-09-26T04:42:52.065Z,99.99
2023-09-26T04:43:52.287Z,99.99
2023-09-26T04:44:52.013Z,99.99
2023-09-26T04:45:52.015Z,99.99
2023-09-26T04:46:52.054Z,99.99
2023-09-26T04:47:52.069Z,99.99
2023-09-26T04:48:52.037Z,99.99
2023-09-26T04:49:51.973Z,99.99
2023-09-26T04:50:51.968Z,99.99
2023-09-26T04:51:51.976Z,99.99
2023-09-26T04:52:51.978Z,99.99
2023-09-26T04:53:53.212Z,99.99
2023-09-26T04:54:51.964Z,99.99
2023-09-26T04:55:51.922Z,99.99
2023-09-26T04:56:51.919Z,99.99
2023-09-26T04:57:51.953Z,99.99
2023-09-26T04:58:51.928Z,99.99
2023-09-26T04:59:51.893Z,99.99
2023-09-26T05:00:51.930Z,99.99
2023-09-26T05:01:51.902Z,99.99
2023-09-26T05:02:52.003Z,99.99
2023-09-26T05:03:52.102Z,99.99
2023-09-26T05:04:51.896Z,99.99
2023-09-26T05:05:51.856Z,99.99
2023-09-26T05:06:51.879Z,99.99
2023-09-26T05:07:51.860Z,99.99
2023-09-26T05:08:51.838Z,99.99
2023-09-26T05:09:51.825Z,99.99
2023-09-26T05:10:51.805Z,99.99
2023-09-26T05:11:51.825Z,99.99
2023-09-26T05:12:51.832Z,99.99
2023-09-26T05:13:51.971Z,99.99
2023-09-26T05:14:51.775Z,99.99
2023-09-26T05:15:51.804Z,99.99
2023-09-26T05:16:51.791Z,99.99
2023-09-26T05:17:51.812Z,99.99
2023-09-26T05:18:51.766Z,99.99
2023-09-26T05:19:51.734Z,99.99
2023-09-26T05:20:51.755Z,99.99
2023-09-26T05:21:51.768Z,99.99
2023-09-26T05:22:51.712Z,99.99
2023-09-26T05:23:51.798Z,99.99
2023-09-26T05:24:51.719Z,99.99
2023-09-26T05:25:51.744Z,99.99
2023-09-26T05:26:51.718Z,99.99
2023-09-26T05:27:51.775Z,99.99
2023-09-26T05:28:51.669Z,99.99
2023-09-26T05:29:51.659Z,99.99
2023-09-26T05:30:51.709Z,99.99
2023-09-26T05:31:51.742Z,99.99
2023-09-26T05:32:51.658Z,99.99
2023-09-26T05:33:51.928Z,99.99
2023-09-26T05:34:51.627Z,99.99
2023-09-26T05:35:51.686Z,99.99
2023-09-26T05:36:51.642Z,99.99
2023-09-26T05:37:51.598Z,99.99
2023-09-26T05:38:51.598Z,99.99
2023-09-26T05:39:51.720Z,99.99
2023-09-26T05:40:51.593Z,99.99
2023-09-26T05:41:51.567Z,99.99
2023-09-26T05:42:51.706Z,99.99
2023-09-26T05:43:51.781Z,99.99
2023-09-26T05:44:51.563Z,99.99
2023-09-26T05:45:51.581Z,99.99
2023-09-26T05:46:51.608Z,99.99
2023-09-26T05:47:51.585Z,99.99
2023-09-26T05:48:51.536Z,99.99
2023-09-26T05:49:51.521Z,99.99
2023-09-26T05:50:51.494Z,99.99
2023-09-26T05:51:51.498Z,99.99
2023-09-26T05:52:51.510Z,99.99
2023-09-26T05:53:51.657Z,99.99
2023-09-26T05:54:51.488Z,99.99
2023-09-26T05:55:53.673Z,99.99
2023-09-26T05:56:51.446Z,99.99
2023-09-26T05:57:51.440Z,99.99
2023-09-26T05:58:51.465Z,99.99
2023-09-26T05:59:51.425Z,99.99
2023-09-26T06:00:51.420Z,99.99
2023-09-26T06:01:51.502Z,99.99
2023-09-26T06:02:51.468Z,99.99
2023-09-26T06:03:51.742Z,99.99
2023-09-26T06:04:51.451Z,99.99
2023-09-26T06:05:51.436Z,99.99
2023-09-26T06:06:51.367Z,99.99
2023-09-26T06:07:51.383Z,99.99
2023-09-26T06:08:54.804Z,99.99
2023-09-26T06:10:05.919Z,99.99
2023-09-26T06:10:53.353Z,99.99
2023-09-26T06:11:51.325Z,99.99
2023-09-26T06:12:51.335Z,99.99
2023-09-26T06:13:52.522Z,99.99
2023-09-26T06:14:51.309Z,99.99
2023-09-26T06:15:51.309Z,99.99
2023-09-26T06:16:51.417Z,99.99
2023-09-26T06:17:51.359Z,99.99
2023-09-26T06:18:51.274Z,99.99
2023-09-26T06:19:51.268Z,99.99
2023-09-26T06:20:51.251Z,99.99
2023-09-26T06:21:52.245Z,99.99
2023-09-26T06:22:51.256Z,99.99
2023-09-26T06:23:52.445Z,99.99
2023-09-26T06:24:51.223Z,99.99
2023-09-26T06:25:56.764Z,99.99
2023-09-26T06:26:53.209Z,99.99
2023-09-26T06:27:51.230Z,99.99
2023-09-26T06:28:51.194Z,99.99
2023-09-26T06:29:51.181Z,99.99
2023-09-26T06:30:51.179Z,99.99
2023-09-26T06:31:51.198Z,99.99
2023-09-26T06:32:51.230Z,99.99
2023-09-26T06:33:51.305Z,99.99
2023-09-26T06:34:52.321Z,99.99
2023-09-26T06:35:51.164Z,99.99
2023-09-26T06:36:51.201Z,99.99
2023-09-26T06:37:51.173Z,99.99
2023-09-26T06:38:51.112Z,99.99
2023-09-26T06:39:51.138Z,99.99
2023-09-26T06:40:51.096Z,99.99
2023-09-26T06:41:51.108Z,99.99
2023-09-26T06:42:51.098Z,99.99
2023-09-26T06:43:51.186Z,99.99
2023-09-26T06:44:51.061Z,99.99
2023-09-26T06:45:51.087Z,99.99
2023-09-26T06:46:51.116Z,99.99
2023-09-26T06:47:51.077Z,99.99
2023-09-26T06:48:51.308Z,99.99
2023-09-26T06:49:51.065Z,99.99
2023-09-26T06:50:51.035Z,99.99
2023-09-26T06:51:51.151Z,99.99
2023-09-26T06:52:51.019Z,99.99
2023-09-26T06:53:51.190Z,99.99
2023-09-26T06:54:51.002Z,99.99
2023-09-26T06:55:51.002Z,99.99
2023-09-26T06:56:50.993Z,99.99
2023-09-26T06:57:51.002Z,99.99
2023-09-26T06:58:51.293Z,99.99
2023-09-26T06:59:50.960Z,99.99
2023-09-26T07:00:50.981Z,99.99
2023-09-26T07:01:50.946Z,99.99
2023-09-26T07:02:50.942Z,99.99
2023-09-26T07:03:51.255Z,99.99
2023-09-26T07:04:50.980Z,99.76
2023-09-26T07:05:50.934Z,99.10
2023-09-26T07:06:50.958Z,98.69
2023-09-26T07:07:50.887Z,98.53
2023-09-26T07:08:51.102Z,98.90
2023-09-26T07:09:50.924Z,98.38
2023-09-26T07:10:50.897Z,98.99
2023-09-26T07:11:50.854Z,98.38
2023-09-26T07:12:50.885Z,98.95
2023-09-26T07:13:50.859Z,98.03
2023-09-26T07:14:50.864Z,98.28
2023-09-26T07:15:50.844Z,97.97
2023-09-26T07:16:50.824Z,97.87
2023-09-26T07:17:50.826Z,98.63
2023-09-26T07:18:51.123Z,98.12
2023-09-26T07:19:50.819Z,98.22
2023-09-26T07:20:50.789Z,98.74
2023-09-26T07:21:50.792Z,98.74
2023-09-26T07:22:50.768Z,99.45
2023-09-26T07:23:51.070Z,99.35
2023-09-26T07:24:50.757Z,99.04
2023-09-26T07:25:50.746Z,99.20
2023-09-26T07:26:51.036Z,99.61
2023-09-26T07:27:50.738Z,99.30
2023-09-26T07:28:51.098Z,99.25
2023-09-26T07:29:50.720Z,98.99
2023-09-26T07:30:50.770Z,99.05
2023-09-26T07:31:50.743Z,98.44
2023-09-26T07:32:50.744Z,98.85
2023-09-26T07:33:51.158Z,98.85
2023-09-26T07:34:50.700Z,98.60
2023-09-26T07:35:50.667Z,98.39
2023-09-26T07:36:50.685Z,97.57
2023-09-26T07:37:50.678Z,97.22
2023-09-26T07:38:51.047Z,97.79
2023-09-26T07:39:50.675Z,97.69
2023-09-26T07:40:50.722Z,96.87
2023-09-26T07:41:50.637Z,96.51
2023-09-26T07:42:50.642Z,95.90
2023-09-26T07:43:50.836Z,95.65
2023-09-26T07:44:50.596Z,95.45
2023-09-26T07:45:50.648Z,94.94
2023-09-26T07:46:50.649Z,94.74
2023-09-26T07:47:50.658Z,94.08
2023-09-26T07:48:50.611Z,94.90
2023-09-26T07:49:50.563Z,93.47
2023-09-26T07:50:50.559Z,93.77
2023-09-26T07:51:50.581Z,93.16
2023-09-26T07:52:50.542Z,93.67
2023-09-26T07:53:50.813Z,94.38
2023-09-26T07:54:50.535Z,93.88
2023-09-26T07:55:50.516Z,94.38
2023-09-26T07:56:50.538Z,94.29
2023-09-26T07:57:50.515Z,93.88
2023-09-26T07:58:50.492Z,94.70
2023-09-26T07:59:50.479Z,94.94
2023-09-26T08:00:50.530Z,94.84
2023-09-26T08:01:50.533Z,94.74
2023-09-26T08:02:50.468Z,94.90
2023-09-26T08:03:50.766Z,95.45
2023-09-26T08:04:50.495Z,95.04
2023-09-26T08:05:50.519Z,95.50
2023-09-26T08:06:50.466Z,96.72
2023-09-26T08:07:50.480Z,97.08
2023-09-26T08:08:50.415Z,95.81
2023-09-26T08:09:50.441Z,95.57
2023-09-26T08:10:50.419Z,93.79
2023-09-26T08:11:50.387Z,93.13
2023-09-26T08:12:50.408Z,92.52
2023-09-26T08:13:50.784Z,92.42
2023-09-26T08:14:50.367Z,92.79
2023-09-26T08:15:50.438Z,92.11
2023-09-26T08:16:50.425Z,93.02
2023-09-26T08:17:50.356Z,93.88
2023-09-26T08:18:50.346Z,94.85
2023-09-26T08:19:50.344Z,94.85
2023-09-26T08:20:50.341Z,94.90
2023-09-26T08:21:50.343Z,94.34
2023-09-26T08:22:50.295Z,95.16
2023-09-26T08:23:51.441Z,93.99
2023-09-26T08:24:50.318Z,93.64
2023-09-26T08:25:50.305Z,92.63
2023-09-26T08:26:50.269Z,92.99
2023-09-26T08:27:50.273Z,93.25
2023-09-26T08:28:50.250Z,91.68
2023-09-26T08:29:50.273Z,90.46
2023-09-26T08:30:50.285Z,90.46
2023-09-26T08:31:50.276Z,90.46
2023-09-26T08:32:50.829Z,90.11
2023-09-26T08:33:50.526Z,89.76
2023-09-26T08:34:50.233Z,88.46
2023-09-26T08:35:50.211Z,87.40
2023-09-26T08:36:50.207Z,87.22
2023-09-26T08:37:50.187Z,84.87
2023-09-26T08:38:50.199Z,82.53
2023-09-26T08:39:50.222Z,80.43
2023-09-26T08:40:50.167Z,80.02
2023-09-26T08:41:51.549Z,79.82
2023-09-26T08:42:51.281Z,80.30
2023-09-26T08:43:50.495Z,80.66
2023-09-26T08:44:50.128Z,78.97
2023-09-26T08:45:50.151Z,78.63
2023-09-26T08:46:50.272Z,77.73
2023-09-26T08:47:50.132Z,78.33
2023-09-26T08:48:50.183Z,78.36
2023-09-26T08:49:50.153Z,78.06
2023-09-26T08:50:50.086Z,75.49
2023-09-26T08:51:50.099Z,74.25
2023-09-26T08:52:50.070Z,73.81
2023-09-26T08:53:50.498Z,73.58
2023-09-26T08:54:50.088Z,73.41
2023-09-26T08:55:50.054Z,73.85
2023-09-26T08:56:50.056Z,74.18
2023-09-26T08:57:50.100Z,72.53
2023-09-26T08:58:50.441Z,72.00
2023-09-26T08:59:50.038Z,71.36
2023-09-26T09:00:50.060Z,71.06
2023-09-26T09:01:50.110Z,70.23
2023-09-26T09:02:50.054Z,69.92
2023-09-26T09:03:50.035Z,71.50
2023-09-26T09:04:50.117Z,71.53
2023-09-26T09:05:49.977Z,71.87
2023-09-26T09:06:50.005Z,72.71
2023-09-26T09:07:49.987Z,72.27
2023-09-26T09:08:50.185Z,73.38
2023-09-26T09:09:49.983Z,73.47
2023-09-26T09:10:49.973Z,73.34
2023-09-26T09:11:49.958Z,71.97
2023-09-26T09:12:49.978Z,70.96
2023-09-26T09:13:49.917Z,71.36
2023-09-26T09:14:49.915Z,72.10
2023-09-26T09:15:50.049Z,71.97
2023-09-26T09:16:49.958Z,70.29
2023-09-26T09:17:49.941Z,70.53
2023-09-26T09:18:50.009Z,71.56
2023-09-26T09:19:49.906Z,71.97
2023-09-26T09:20:49.874Z,72.03
2023-09-26T09:21:49.883Z,71.66
2023-09-26T09:22:49.858Z,72.30
2023-09-26T09:23:49.847Z,71.66
2023-09-26T09:24:49.863Z,72.00
2023-09-26T09:25:49.897Z,71.47
2023-09-26T09:26:49.843Z,71.53
2023-09-26T09:27:49.838Z,70.09
2023-09-26T09:28:50.207Z,69.86
2023-09-26T09:29:49.803Z,69.96
2023-09-26T09:30:49.836Z,69.12
2023-09-26T09:31:49.921Z,68.29
2023-09-26T09:32:49.833Z,67.55
2023-09-26T09:33:49.819Z,66.93
2023-09-26T09:34:49.764Z,66.82
2023-09-26T09:35:49.775Z,66.93
2023-09-26T09:36:49.800Z,68.13
2023-09-26T09:37:49.740Z,67.52
2023-09-26T09:38:49.921Z,68.66
2023-09-26T09:39:49.791Z,69.09
2023-09-26T09:40:49.752Z,68.22
2023-09-26T09:41:49.720Z,69.02
2023-09-26T09:42:49.720Z,69.23
2023-09-26T09:43:49.954Z,69.12
2023-09-26T09:44:49.687Z,69.12
2023-09-26T09:45:49.814Z,67.99
2023-09-26T09:46:49.811Z,67.86
2023-09-26T09:47:49.692Z,67.22
2023-09-26T09:48:49.895Z,67.22
2023-09-26T09:49:49.687Z,67.76
2023-09-26T09:50:49.678Z,67.25
2023-09-26T09:51:49.664Z,67.79
2023-09-26T09:52:49.651Z,68.42
2023-09-26T09:53:49.634Z,69.06
2023-09-26T09:54:49.751Z,69.86
2023-09-26T09:55:49.618Z,70.06
2023-09-26T09:56:49.610Z,69.82
2023-09-26T09:57:49.636Z,70.26
2023-09-26T09:58:49.911Z,70.86
2023-09-26T09:59:49.613Z,71.09
2023-09-26T10:00:50.509Z,71.80
2023-09-26T10:01:49.714Z,71.33
2023-09-26T10:02:49.580Z,70.63
2023-09-26T10:03:49.685Z,71.56
2023-09-26T10:04:49.657Z,72.56
2023-09-26T10:05:49.543Z,72.56
2023-09-26T10:06:49.582Z,72.67
2023-09-26T10:07:49.535Z,71.33
2023-09-26T10:08:49.872Z,71.70
2023-09-26T10:09:49.557Z,72.03
2023-09-26T10:10:49.506Z,72.63
2023-09-26T10:11:49.501Z,72.94
2023-09-26T10:13:12.704Z,73.24
2023-09-26T10:13:51.485Z,73.44
2023-09-26T10:14:50.495Z,73.40
2023-09-26T10:15:49.543Z,74.10
2023-09-26T10:16:49.554Z,74.04
2023-09-26T10:17:49.497Z,75.14
2023-09-26T10:18:49.804Z,74.24
2023-09-26T10:19:58.398Z,74.44
2023-09-26T10:20:53.340Z,75.41
2023-09-26T10:21:50.438Z,75.34
2023-09-26T10:22:49.410Z,77.15
2023-09-26T10:23:49.428Z,77.15
2023-09-26T10:24:49.487Z,78.39
2023-09-26T10:25:49.394Z,78.39
2023-09-26T10:26:49.383Z,78.15
2023-09-26T10:27:59.141Z,77.59
2023-09-26T10:28:51.602Z,79.96
2023-09-26T10:29:49.360Z,78.66
2023-09-26T10:30:49.348Z,77.59
2023-09-26T10:31:49.413Z,77.75
2023-09-26T10:32:49.482Z,77.95
2023-09-26T10:33:49.368Z,78.45
2023-09-26T10:35:51.308Z,77.41
2023-09-26T10:36:49.336Z,77.28
2023-09-26T10:37:49.338Z,77.28
2023-09-26T10:38:49.337Z,76.74
2023-09-26T10:39:49.414Z,76.04
2023-09-26T10:40:49.346Z,75.50
2023-09-26T10:42:07.286Z,76.00
2023-09-26T10:43:54.337Z,74.76
2023-09-26T10:44:51.239Z,75.26
2023-09-26T10:45:49.446Z,75.67
2023-09-26T10:46:49.521Z,76.67
2023-09-26T10:47:57.958Z,76.06
2023-09-26T10:48:51.230Z,75.16
2023-09-26T10:49:49.204Z,76.10
2023-09-26T10:50:49.207Z,76.00
2023-09-26T10:51:49.191Z,75.37
2023-09-26T10:52:49.212Z,75.56
2023-09-26T10:53:49.178Z,76.06
2023-09-26T10:54:49.201Z,75.52
2023-09-26T10:55:49.276Z,74.13
2023-09-26T10:56:49.188Z,73.99
2023-09-26T10:57:49.166Z,73.83
2023-09-26T10:58:49.139Z,73.49
2023-09-26T10:59:49.123Z,73.09
2023-09-26T11:00:49.126Z,73.25
2023-09-26T11:01:49.243Z,70.96
2023-09-26T11:02:49.370Z,72.02
2023-09-26T11:03:49.217Z,71.33
2023-09-26T11:04:49.615Z,70.49
2023-09-26T11:05:49.230Z,69.16
2023-09-26T11:06:49.200Z,70.65
2023-09-26T11:07:49.650Z,69.36
2023-09-26T11:08:49.588Z,68.53
2023-09-26T11:09:49.144Z,67.73
2023-09-26T11:10:49.039Z,65.64
2023-09-26T11:11:49.052Z,65.53
2023-09-26T11:12:49.039Z,66.24
2023-09-26T11:13:49.042Z,67.13
2023-09-26T11:14:49.007Z,66.30
2023-09-26T11:15:49.057Z,65.91
2023-09-26T11:16:49.032Z,65.47
2023-09-26T11:17:49.073Z,66.24
2023-09-26T11:18:48.978Z,65.74
2023-09-26T11:19:49.025Z,64.51
2023-09-26T11:20:51.126Z,66.64
2023-09-26T11:21:50.958Z,68.53
2023-09-26T11:22:48.978Z,66.77
2023-09-26T11:23:48.939Z,66.17
2023-09-26T11:24:48.935Z,65.97
2023-09-26T11:25:48.969Z,66.07
2023-09-26T11:26:48.925Z,65.47
2023-09-26T11:27:48.913Z,66.41
2023-09-26T11:28:48.923Z,66.34
2023-09-26T11:29:49.008Z,63.92
2023-09-26T11:30:48.912Z,65.48
2023-09-26T11:31:48.959Z,66.47
2023-09-26T11:32:48.959Z,64.25
2023-09-26T11:33:48.880Z,64.98
2023-09-26T11:34:48.908Z,65.98
2023-09-26T11:35:48.868Z,63.98
2023-09-26T11:36:48.843Z,62.96
2023-09-26T11:37:48.854Z,64.85
2023-09-26T11:38:49.923Z,65.15
2023-09-26T11:39:48.839Z,65.05
2023-09-26T11:40:48.849Z,65.55
2023-09-26T11:41:50.115Z,64.95
2023-09-26T11:42:49.798Z,64.36
2023-09-26T11:43:49.212Z,66.14
2023-09-26T11:44:48.813Z,65.94
2023-09-26T11:45:48.936Z,67.14
2023-09-26T11:46:48.849Z,65.45
2023-09-26T11:47:48.787Z,64.95
2023-09-26T11:48:48.775Z,67.44
2023-09-26T11:49:48.771Z,65.12
2023-09-26T11:50:48.734Z,63.06
2023-09-26T11:51:49.817Z,62.07
2023-09-26T11:52:48.771Z,63.56
2023-09-26T11:53:48.742Z,66.14
2023-09-26T11:54:48.705Z,65.64
2023-09-26T11:55:48.812Z,67.04
2023-09-26T11:56:48.691Z,66.94
2023-09-26T11:57:48.704Z,65.52
2023-09-26T11:58:48.747Z,65.81
2023-09-26T11:59:48.675Z,65.42
2023-09-26T12:00:48.679Z,63.23
2023-09-26T12:01:48.716Z,62.43
2023-09-26T12:02:48.728Z,63.63
2023-09-26T12:03:48.679Z,64.92
2023-09-26T12:04:48.649Z,62.43
2023-09-26T12:05:48.629Z,63.03
2023-09-26T12:06:48.621Z,64.72
2023-09-26T12:07:48.686Z,64.72
2023-09-26T12:08:48.605Z,63.73
2023-09-26T12:09:48.592Z,64.59
2023-09-26T12:10:48.596Z,62.21
2023-09-26T12:11:48.628Z,61.71
2023-09-26T12:12:48.596Z,62.10
2023-09-26T12:13:48.596Z,62.40
2023-09-26T12:14:48.559Z,65.68
2023-09-26T12:15:48.567Z,66.67
2023-09-26T12:16:48.664Z,64.49
2023-09-26T12:17:48.698Z,62.10
2023-09-26T12:18:48.525Z,61.71
2023-09-26T12:19:48.537Z,64.89
2023-09-26T12:20:48.511Z,65.48
2023-09-26T12:21:48.533Z,63.89
2023-09-26T12:22:48.514Z,64.49
2023-09-26T12:23:48.494Z,65.06
2023-09-26T12:24:48.515Z,64.36
2023-09-26T12:25:48.553Z,64.76
2023-09-26T12:26:48.534Z,62.47
2023-09-26T12:27:48.489Z,61.48
2023-09-26T12:28:48.490Z,61.68
2023-09-26T12:29:48.442Z,63.67
2023-09-26T12:30:48.439Z,62.07
2023-09-26T12:31:48.493Z,63.27
2023-09-26T12:32:48.588Z,63.20
2023-09-26T12:33:48.421Z,63.79
2023-09-26T12:34:48.437Z,62.50
2023-09-26T12:35:48.421Z,62.30
2023-09-26T12:36:48.409Z,61.98
2023-09-26T12:37:48.407Z,61.88
2023-09-26T12:38:48.371Z,61.71
2023-09-26T12:39:48.359Z,64.92
2023-09-26T12:40:49.411Z,66.51
2023-09-26T12:41:48.354Z,66.91
2023-09-26T12:42:48.345Z,65.42
2023-09-26T12:43:48.369Z,66.11
2023-09-26T12:44:48.327Z,63.89
2023-09-26T12:45:48.369Z,63.30
2023-09-26T12:46:48.404Z,64.39
2023-09-26T12:47:48.368Z,64.46
2023-09-26T12:48:48.310Z,64.06
2023-09-26T12:49:48.328Z,63.57
2023-09-26T12:50:48.403Z,64.03
2023-09-26T12:51:48.286Z,65.06
2023-09-26T12:52:48.305Z,64.26
2023-09-26T12:53:48.272Z,64.66
2023-09-26T12:54:48.321Z,64.76